Main page
METAR-TAF:

METAR-TAF

Airports :

Kristiansand Airport. Kjevik

Kristiansand, Norway

latitude: 58-12N, longitude: 008-05E, elevation: 1 m

Current weather observation

The report was made 29 minutes ago, at 16:20 UTC
Wind 17 kt from the Southwest
Temperature 7°C
Humidity 87%
Pressure 999 hPa
Visibility: 7000 m
Scattered clouds at a height of 500 ft
Broken clouds at a height of 1200 ft
light drizzle

METAR: ENCN 211620Z 23017KT 7000 -DZ SCT005 BKN012 07/05 Q0999

Time: 17:49 (16:49 UTC)

Forecast

The report was made 2 hours and 49 minutes ago, at 14:00 UTC
Forecast valid from 21 at 15 UTC to 21 at 22 UTC
Wind 20 kt from the Southwest
Visibility: 7000 m
Scattered clouds at a height of 700 ft
Broken clouds at a height of 1200 ft
light rain
Temporary
from 21 at 15 UTC to 21 at 22 UTC
Wind 22 kt from the West/Southwest with gusts up to 35 kt
Visibility: 3000 m
Overcast at a height of 400 ft
light rain, drizzle, mist

TAF: ENCN 211400Z 2115/2122 23020KT 7000 -RA SCT007 BKN012 TEMPO 2115/2122 24022G35KT 3000 -RADZ BR OVC004

Weather observations and forecasts of more than 4000 airports (METAR and TAF reports).

The available stations are represented by yellow and red dots on the map.

Hover mouse over dot to see the name of the station.

Then click to see weather observations and forecasts.

To change the map : click on the green buttons with a black cross to zoom in, on the green button with a dash to zoom out, or on the green arrows for adjacent maps.


METAR-TAF: